YNL weather

Points North Landing Airport
Points North Landing, Saskatchewan, Canada

Public forecast

Using degrees Celsius for public forecast. Weather courtesy of forecast.io.

Closest aviation weather report (METAR) to Points North Landing Airport

Closest report is Key Lake Airport, 78.6 nm (145.5 km) SW. Retrieved 2019/12/12 23:00 UTC (47 minutes ago):

CYKJ 122300Z AUTO VRB02KT 9SM CLR M35/M39 A2998 RMK SLP238

Closest aviation forecast (TAF) to Points North Landing Airport

Closest forecast is Key Lake Airport, 78.6 nm (145.5 km) SW. Retrieved 2019/12/12 19:00 UTC (5 hours ago):

TAF CYKJ 121838Z 1219/1224 VRB03KT P6SM SKC TEMPO 1219/1224 11/2SM IC HZ RMK FCST BASED ON AUTO OBS NXT FCST WILL BE ISSUED AT 130945Z